createdAt,value
2022-08-16T00:01:24.407Z,5.43
2022-08-16T00:03:53.975Z,3.13
2022-08-16T00:06:22.777Z,5.00
2022-08-16T00:08:49.964Z,5.23
2022-08-16T00:11:17.536Z,4.10
2022-08-16T00:13:53.403Z,4.07
2022-08-16T00:17:06.162Z,4.10
2022-08-16T00:19:41.155Z,5.90
2022-08-16T00:22:12.809Z,6.20
2022-08-16T00:24:44.824Z,5.57
2022-08-16T00:27:14.777Z,11.90
2022-08-16T00:29:42.593Z,7.13
2022-08-16T00:32:11.038Z,3.83
2022-08-16T00:34:43.274Z,4.37
2022-08-16T00:37:17.018Z,4.07
2022-08-16T00:39:45.093Z,4.87
2022-08-16T00:42:29.983Z,4.83
2022-08-16T00:45:25.449Z,4.03
2022-08-16T00:47:54.696Z,4.37
2022-08-16T00:50:36.262Z,3.50
2022-08-16T00:53:12.860Z,5.37
2022-08-16T00:55:47.659Z,3.90
2022-08-16T00:58:34.279Z,3.37
2022-08-16T01:01:03.675Z,3.67
2022-08-16T01:03:41.550Z,3.60
2022-08-16T01:06:40.075Z,4.70
2022-08-16T01:09:01.358Z,3.77
2022-08-16T01:11:29.438Z,3.40
2022-08-16T01:14:07.173Z,3.33
2022-08-16T01:16:35.314Z,3.50
2022-08-16T01:19:41.595Z,3.50
2022-08-16T01:22:47.976Z,4.80
2022-08-16T01:25:33.853Z,6.23
2022-08-16T01:28:08.129Z,4.10
2022-08-16T01:30:49.886Z,3.87
2022-08-16T01:33:22.639Z,3.40
2022-08-16T01:36:00.248Z,4.30
2022-08-16T01:38:34.711Z,3.53
2022-08-16T01:41:08.330Z,3.57
2022-08-16T01:43:39.366Z,3.70
2022-08-16T01:46:39.920Z,3.27
2022-08-16T01:49:24.134Z,3.43
2022-08-16T01:52:29.301Z,3.60
2022-08-16T01:54:58.087Z,3.43
2022-08-16T01:57:28.422Z,4.40
2022-08-16T01:59:59.835Z,4.20
2022-08-16T02:02:28.797Z,4.43
2022-08-16T02:04:58.002Z,4.30
2022-08-16T02:07:26.657Z,5.60
2022-08-16T02:09:58.842Z,4.30
2022-08-16T02:12:50.595Z,19.20
2022-08-16T02:15:24.855Z,4.47
2022-08-16T02:17:54.314Z,4.80
2022-08-16T02:20:26.135Z,3.47
2022-08-16T02:22:55.305Z,4.63
2022-08-16T02:25:23.030Z,4.00
2022-08-16T02:27:51.079Z,5.57
2022-08-16T02:30:37.473Z,3.90
2022-08-16T02:33:13.116Z,3.23
2022-08-16T02:35:54.500Z,4.10
2022-08-16T02:38:27.818Z,4.10
2022-08-16T02:40:56.871Z,4.70
2022-08-16T02:43:27.748Z,4.10
2022-08-16T02:45:56.384Z,4.10
2022-08-16T02:48:28.354Z,4.37
2022-08-16T02:51:06.193Z,6.30
2022-08-16T02:53:45.953Z,4.50
2022-08-16T02:56:16.556Z,4.57
2022-08-16T02:58:50.667Z,5.00
2022-08-16T03:01:24.571Z,3.80
2022-08-16T03:04:40.063Z,5.43
2022-08-16T03:06:56.781Z,4.87
2022-08-16T03:09:28.757Z,5.00
2022-08-16T03:11:57.017Z,3.80
2022-08-16T03:14:24.692Z,5.20
2022-08-16T03:16:58.722Z,6.07
2022-08-16T03:19:48.715Z,4.00
2022-08-16T03:22:19.279Z,4.00
2022-08-16T03:24:55.121Z,3.80
2022-08-16T03:27:31.374Z,3.70
2022-08-16T03:30:16.420Z,3.83
2022-08-16T03:32:47.853Z,4.80
2022-08-16T03:35:23.016Z,3.50
2022-08-16T03:38:02.830Z,3.70
2022-08-16T03:40:34.319Z,3.10
2022-08-16T03:43:20.880Z,4.33
2022-08-16T03:45:52.370Z,4.13
2022-08-16T03:48:39.727Z,5.87
2022-08-16T03:51:12.457Z,3.40
2022-08-16T03:53:41.918Z,3.70
2022-08-16T03:56:19.643Z,4.00
2022-08-16T03:58:51.029Z,3.90
2022-08-16T04:01:21.754Z,3.77
2022-08-16T04:03:50.591Z,3.50
2022-08-16T04:06:17.537Z,4.03
2022-08-16T04:08:45.165Z,3.70
2022-08-16T04:11:16.511Z,4.10
2022-08-16T04:14:01.187Z,4.03
2022-08-16T04:16:32.312Z,4.87
2022-08-16T04:19:02.616Z,3.70
2022-08-16T04:21:34.359Z,4.13
2022-08-16T04:24:03.234Z,4.37
2022-08-16T04:26:32.333Z,3.73
2022-08-16T04:29:14.713Z,3.73
2022-08-16T04:31:43.788Z,3.67
2022-08-16T04:34:10.689Z,3.60
2022-08-16T04:36:39.958Z,3.90
2022-08-16T04:39:06.759Z,4.60
2022-08-16T04:41:37.498Z,5.10
2022-08-16T04:44:52.827Z,4.00
2022-08-16T04:47:01.392Z,3.60
2022-08-16T04:49:43.791Z,4.33
2022-08-16T04:52:33.134Z,4.50
2022-08-16T04:55:00.311Z,4.00
2022-08-16T04:57:29.932Z,5.17
2022-08-16T04:59:57.368Z,3.97
2022-08-16T05:02:41.606Z,5.10
2022-08-16T05:05:17.056Z,4.17
2022-08-16T05:07:58.462Z,3.97
2022-08-16T05:10:29.603Z,4.20
2022-08-16T05:12:59.050Z,4.73
2022-08-16T05:15:26.521Z,3.90
2022-08-16T05:17:58.662Z,4.80
2022-08-16T05:20:39.349Z,5.83
2022-08-16T05:23:16.928Z,4.00
2022-08-16T05:25:48.257Z,4.53
2022-08-16T05:28:17.133Z,4.47
2022-08-16T05:30:45.433Z,5.13
2022-08-16T05:33:18.289Z,7.47
2022-08-16T05:35:54.818Z,6.20
2022-08-16T05:38:32.922Z,7.10
2022-08-16T05:41:09.250Z,5.17
2022-08-16T05:43:43.516Z,4.23
2022-08-16T05:46:29.489Z,4.00
2022-08-16T05:49:09.116Z,4.13
2022-08-16T05:51:40.196Z,6.13
2022-08-16T05:54:11.689Z,3.30
2022-08-16T05:56:43.005Z,4.63
2022-08-16T05:59:10.748Z,3.83
2022-08-16T06:01:39.627Z,3.60
2022-08-16T06:04:12.872Z,4.40
2022-08-16T06:06:56.729Z,4.83
2022-08-16T06:09:42.554Z,3.97
2022-08-16T06:12:27.547Z,4.80
2022-08-16T06:14:59.539Z,4.10
2022-08-16T06:17:43.118Z,4.40
2022-08-16T06:20:25.680Z,4.10
2022-08-16T06:23:04.175Z,4.53
2022-08-16T06:25:39.766Z,4.43
2022-08-16T06:28:16.644Z,4.17
2022-08-16T06:30:45.424Z,3.27
2022-08-16T06:33:22.382Z,3.73
2022-08-16T06:35:59.492Z,3.87
2022-08-16T06:38:32.646Z,3.30
2022-08-16T06:41:06.423Z,4.50
2022-08-16T06:43:41.618Z,3.60
2022-08-16T06:46:23.004Z,4.50
2022-08-16T06:48:59.005Z,3.43
2022-08-16T06:51:48.258Z,3.70
2022-08-16T06:54:13.905Z,3.43
2022-08-16T06:56:42.368Z,4.50
2022-08-16T06:59:09.339Z,4.63
2022-08-16T07:01:44.888Z,6.00
2022-08-16T07:04:33.068Z,5.80
2022-08-16T07:07:05.763Z,5.60
2022-08-16T07:09:32.793Z,4.37
2022-08-16T07:12:03.522Z,5.93
2022-08-16T07:14:31.583Z,4.53
2022-08-16T07:16:59.817Z,4.43
2022-08-16T07:20:02.727Z,6.70
2022-08-16T07:22:38.285Z,10.60
2022-08-16T07:25:13.506Z,3.63
2022-08-16T07:27:41.925Z,3.93
2022-08-16T07:30:39.147Z,3.60
2022-08-16T07:33:05.683Z,4.80
2022-08-16T07:35:34.473Z,4.67
2022-08-16T07:38:02.174Z,3.87
2022-08-16T07:40:57.989Z,4.43
2022-08-16T07:43:17.566Z,4.07
2022-08-16T07:45:48.249Z,4.07
2022-08-16T07:48:20.351Z,5.00
2022-08-16T07:50:56.902Z,3.50
2022-08-16T07:53:29.610Z,4.10
2022-08-16T07:56:00.332Z,6.03
2022-08-16T07:58:33.779Z,4.60
2022-08-16T08:01:05.707Z,5.27
2022-08-16T08:03:42.568Z,3.90
2022-08-16T08:06:12.331Z,4.70
2022-08-16T08:08:50.424Z,4.77
2022-08-16T08:11:21.526Z,10.17
2022-08-16T08:13:51.043Z,4.50
2022-08-16T08:16:21.201Z,4.50
2022-08-16T08:18:56.214Z,3.40
2022-08-16T08:21:58.324Z,5.63
2022-08-16T08:24:15.375Z,5.40
2022-08-16T08:26:43.042Z,4.77
2022-08-16T08:29:10.087Z,3.87
2022-08-16T08:31:42.152Z,5.20
2022-08-16T08:34:09.144Z,5.03
2022-08-16T08:36:40.021Z,4.73
2022-08-16T08:39:13.194Z,5.40
2022-08-16T08:41:43.289Z,6.40
2022-08-16T08:44:28.748Z,7.20
2022-08-16T08:47:00.036Z,5.20
2022-08-16T08:49:46.705Z,4.10
2022-08-16T08:52:33.621Z,3.70
2022-08-16T08:55:09.511Z,7.57
2022-08-16T08:57:45.071Z,7.50
2022-08-16T09:00:15.523Z,4.10
2022-08-16T09:02:45.724Z,5.50
2022-08-16T09:05:22.283Z,4.53
2022-08-16T09:07:54.684Z,3.90
2022-08-16T09:10:29.380Z,5.63
2022-08-16T09:12:57.642Z,5.00
2022-08-16T09:15:26.340Z,4.50
2022-08-16T09:18:25.372Z,5.73
2022-08-16T09:20:59.074Z,4.17
2022-08-16T09:23:31.391Z,7.23
2022-08-16T09:26:44.759Z,6.10
2022-08-16T09:29:15.438Z,6.13
2022-08-16T09:31:41.941Z,5.07
2022-08-16T09:34:10.426Z,7.47
2022-08-16T09:36:45.188Z,6.00
2022-08-16T09:39:16.151Z,3.63
2022-08-16T09:41:53.150Z,3.60
2022-08-16T09:45:09.076Z,6.30
2022-08-16T09:47:11.270Z,7.23
2022-08-16T09:49:40.981Z,5.07
2022-08-16T09:52:09.995Z,5.80
2022-08-16T09:54:40.399Z,6.03
2022-08-16T09:57:12.119Z,6.93
2022-08-16T09:59:42.190Z,6.13
2022-08-16T10:02:22.943Z,5.33
2022-08-16T10:04:57.300Z,7.03
2022-08-16T10:07:38.237Z,4.90
2022-08-16T10:10:12.038Z,6.43
2022-08-16T10:12:57.337Z,4.93
2022-08-16T10:15:30.130Z,9.17
2022-08-16T10:17:59.860Z,7.37
2022-08-16T10:20:43.014Z,5.10
2022-08-16T10:23:17.246Z,8.53
2022-08-16T10:27:18.202Z,6.43
2022-08-16T10:28:40.098Z,5.03
2022-08-16T10:31:11.726Z,6.90
2022-08-16T10:33:40.354Z,5.10
2022-08-16T10:36:09.662Z,7.40
2022-08-16T10:38:42.383Z,9.93
2022-08-16T10:41:11.197Z,12.70
2022-08-16T10:43:43.253Z,15.33
2022-08-16T10:46:40.135Z,14.13
2022-08-16T10:49:05.056Z,14.30
2022-08-16T10:51:34.168Z,23.80
2022-08-16T10:54:29.578Z,19.53
2022-08-16T10:57:04.471Z,24.80
2022-08-16T10:59:45.819Z,21.73
2022-08-16T11:02:59.533Z,22.27
2022-08-16T11:05:16.245Z,29.57
2022-08-16T11:07:52.433Z,26.13
2022-08-16T11:19:06.441Z,25.07
2022-08-16T11:24:42.879Z,19.93
2022-08-16T11:27:23.679Z,17.67
2022-08-16T11:29:56.506Z,19.27
2022-08-16T11:32:29.901Z,18.93
2022-08-16T11:35:16.117Z,19.30
2022-08-16T11:40:47.032Z,15.33
2022-08-16T11:43:26.567Z,16.00
2022-08-16T11:45:56.594Z,18.40
2022-08-16T11:48:29.942Z,18.10
2022-08-16T11:50:57.529Z,16.60
2022-08-16T11:53:24.988Z,12.37
2022-08-16T11:55:54.893Z,12.40
2022-08-16T11:58:25.978Z,11.53
2022-08-16T12:00:57.438Z,15.17
2022-08-16T12:03:34.288Z,14.83
2022-08-16T12:06:24.937Z,11.97
2022-08-16T12:09:01.092Z,14.30
2022-08-16T12:11:31.701Z,11.30
2022-08-16T12:14:07.221Z,11.30
2022-08-16T12:16:35.569Z,11.93
2022-08-16T12:19:10.436Z,10.90
2022-08-16T12:21:57.758Z,12.53
2022-08-16T12:24:27.227Z,10.40
2022-08-16T12:26:55.177Z,9.07
2022-08-16T12:29:22.708Z,12.93
2022-08-16T12:31:59.268Z,9.17
2022-08-16T12:34:29.526Z,9.03
2022-08-16T12:36:56.702Z,8.57
2022-08-16T12:39:23.803Z,13.43
2022-08-16T12:41:56.427Z,12.77
2022-08-16T12:44:26.327Z,14.70
2022-08-16T12:47:17.520Z,7.10
2022-08-16T12:49:44.290Z,6.60
2022-08-16T12:52:32.542Z,7.17
2022-08-16T12:54:59.896Z,6.63
2022-08-16T12:57:36.464Z,6.03
2022-08-16T13:00:10.931Z,7.10
2022-08-16T13:02:38.066Z,5.10
2022-08-16T13:05:06.901Z,8.23
2022-08-16T13:07:37.478Z,7.20
2022-08-16T13:10:21.342Z,9.50
2022-08-16T13:13:01.956Z,5.53
2022-08-16T13:15:30.723Z,5.73
2022-08-16T13:18:24.265Z,4.77
2022-08-16T13:20:51.911Z,5.97
2022-08-16T13:23:19.351Z,6.00
2022-08-16T13:25:49.974Z,8.07
2022-08-16T13:28:19.095Z,8.07
2022-08-16T13:30:51.411Z,8.80
2022-08-16T13:33:30.473Z,6.40
2022-08-16T13:36:01.415Z,6.90
2022-08-16T13:38:31.463Z,7.67
2022-08-16T13:41:08.426Z,7.67
2022-08-16T13:43:37.936Z,8.23
2022-08-16T13:46:06.555Z,6.83
2022-08-16T13:48:42.993Z,5.87
2022-08-16T13:51:17.610Z,5.30
2022-08-16T13:53:59.163Z,4.43
2022-08-16T13:56:38.078Z,4.83
2022-08-16T13:59:19.862Z,7.37
2022-08-16T14:01:55.198Z,5.03
2022-08-16T14:04:28.851Z,7.40
2022-08-16T14:06:57.804Z,5.57
2022-08-16T14:09:27.215Z,4.57
2022-08-16T14:11:57.527Z,5.67
2022-08-16T14:14:28.618Z,4.60
2022-08-16T14:16:58.714Z,4.70
2022-08-16T14:19:27.947Z,4.73
2022-08-16T14:22:13.651Z,4.90
2022-08-16T14:24:47.863Z,4.73
2022-08-16T14:27:23.881Z,4.90
2022-08-16T14:29:54.264Z,7.43
2022-08-16T14:32:32.795Z,5.57
2022-08-16T14:35:14.925Z,5.07
2022-08-16T14:37:42.956Z,5.20
2022-08-16T14:40:14.916Z,4.60
2022-08-16T14:42:44.128Z,6.10
2022-08-16T14:45:15.866Z,6.03
2022-08-16T14:47:44.262Z,5.37
2022-08-16T14:50:16.506Z,6.80
2022-08-16T14:53:05.504Z,6.80
2022-08-16T14:55:36.439Z,5.53
2022-08-16T14:58:05.091Z,5.60
2022-08-16T15:00:36.395Z,5.70
2022-08-16T15:03:09.629Z,14.27
2022-08-16T15:05:40.280Z,14.33
2022-08-16T15:08:08.542Z,9.77
2022-08-16T15:10:37.355Z,6.37
2022-08-16T15:13:09.701Z,7.63
2022-08-16T15:15:38.448Z,4.70
2022-08-16T15:18:06.205Z,6.30
2022-08-16T15:20:38.458Z,9.87
2022-08-16T15:23:08.899Z,8.63
2022-08-16T15:25:47.228Z,7.00
2022-08-16T15:28:31.981Z,16.43
2022-08-16T15:31:03.883Z,6.80
2022-08-16T15:33:44.318Z,4.73
2022-08-16T15:36:19.520Z,5.20
2022-08-16T15:39:03.873Z,6.50
2022-08-16T15:41:42.737Z,6.87
2022-08-16T15:44:22.293Z,12.03
2022-08-16T15:46:59.854Z,5.90
2022-08-16T15:49:37.641Z,7.13
2022-08-16T15:52:20.852Z,6.07
2022-08-16T15:54:53.234Z,8.10
2022-08-16T15:57:27.810Z,4.73
2022-08-16T16:00:04.257Z,5.87
2022-08-16T16:02:36.763Z,5.53
2022-08-16T16:05:09.904Z,4.30
2022-08-16T16:07:55.921Z,6.20
2022-08-16T16:10:29.309Z,7.10
2022-08-16T16:13:00.444Z,4.23
2022-08-16T16:15:31.784Z,4.40
2022-08-16T16:17:58.836Z,6.10
2022-08-16T16:20:29.182Z,5.27
2022-08-16T16:23:10.315Z,6.47
2022-08-16T16:25:43.981Z,4.33
2022-08-16T16:29:06.255Z,4.50
2022-08-16T16:31:09.405Z,9.80
2022-08-16T16:33:41.933Z,8.23
2022-08-16T16:36:17.187Z,12.87
2022-08-16T16:38:47.406Z,6.50
2022-08-16T16:41:20.447Z,14.43
2022-08-16T16:43:53.331Z,5.00
2022-08-16T16:46:39.085Z,6.63
2022-08-16T16:49:09.410Z,7.57
2022-08-16T16:51:40.554Z,8.73
2022-08-16T16:54:09.683Z,6.23
2022-08-16T16:56:40.368Z,6.83
2022-08-16T16:59:19.772Z,5.17
2022-08-16T17:02:00.269Z,5.30
2022-08-16T17:04:36.911Z,6.80
2022-08-16T17:07:04.270Z,6.63
2022-08-16T17:09:40.297Z,8.20
2022-08-16T17:12:22.665Z,6.40
2022-08-16T17:14:58.320Z,6.80
2022-08-16T17:17:26.259Z,6.70
2022-08-16T17:19:54.269Z,5.87
2022-08-16T17:22:23.150Z,5.40
2022-08-16T17:24:53.179Z,6.00
2022-08-16T17:27:33.925Z,4.90
2022-08-16T17:30:16.097Z,7.30
2022-08-16T17:32:50.305Z,6.37
2022-08-16T17:35:33.679Z,4.63
2022-08-16T17:38:06.067Z,4.80
2022-08-16T17:40:55.159Z,10.20
2022-08-16T17:43:44.390Z,7.23
2022-08-16T17:46:50.734Z,11.37
2022-08-16T17:49:00.507Z,8.00
2022-08-16T17:51:28.411Z,6.57
2022-08-16T17:53:55.520Z,6.23
2022-08-16T17:56:22.785Z,6.10
2022-08-16T17:58:49.702Z,4.63
2022-08-16T18:01:27.715Z,5.90
2022-08-16T18:04:06.683Z,7.63
2022-08-16T18:06:38.491Z,4.80
2022-08-16T18:09:07.403Z,7.20
2022-08-16T18:11:40.680Z,4.90
2022-08-16T18:14:09.308Z,5.50
2022-08-16T18:16:36.236Z,5.47
2022-08-16T18:19:03.277Z,4.90
2022-08-16T18:21:48.660Z,6.37
2022-08-16T18:24:15.618Z,6.57
2022-08-16T18:26:42.450Z,8.90
2022-08-16T18:29:09.327Z,8.83
2022-08-16T18:31:36.678Z,6.40
2022-08-16T18:34:04.976Z,11.87
2022-08-16T18:36:33.265Z,5.53
2022-08-16T18:39:00.446Z,6.67
2022-08-16T18:41:30.263Z,7.07
2022-08-16T18:44:26.773Z,7.23
2022-08-16T18:46:50.677Z,9.40
2022-08-16T18:49:19.585Z,6.53
2022-08-16T18:51:46.925Z,11.70
2022-08-16T18:54:19.568Z,6.27
2022-08-16T18:56:55.956Z,7.97
2022-08-16T18:59:29.504Z,11.60
2022-08-16T19:01:59.969Z,8.87
2022-08-16T19:04:55.992Z,7.47
2022-08-16T19:07:17.810Z,10.77
2022-08-16T19:09:44.746Z,8.73
2022-08-16T19:12:11.650Z,11.80
2022-08-16T19:14:45.305Z,11.70
2022-08-16T19:17:12.414Z,6.63
2022-08-16T19:19:39.213Z,7.53
2022-08-16T19:22:06.512Z,6.50
2022-08-16T19:24:33.387Z,5.50
2022-08-16T19:27:01.609Z,5.73
2022-08-16T19:29:28.991Z,6.30
2022-08-16T19:31:55.815Z,6.20
2022-08-16T19:34:22.600Z,8.80
2022-08-16T19:36:49.404Z,7.10
2022-08-16T19:39:17.352Z,6.83
2022-08-16T19:41:53.666Z,7.77
2022-08-16T19:44:22.868Z,7.03
2022-08-16T19:46:50.322Z,6.53
2022-08-16T19:49:17.744Z,5.40
2022-08-16T19:51:46.748Z,5.70
2022-08-16T19:54:13.706Z,7.70
2022-08-16T19:56:40.532Z,6.47
2022-08-16T19:59:39.896Z,7.63
2022-08-16T20:01:54.754Z,6.20
2022-08-16T20:04:23.146Z,8.40
2022-08-16T20:06:52.248Z,6.60
2022-08-16T20:09:21.419Z,5.57
2022-08-16T20:11:51.994Z,5.60
2022-08-16T20:14:25.572Z,11.23
2022-08-16T20:16:56.491Z,8.33
2022-08-16T20:19:25.013Z,6.57
2022-08-16T20:21:51.979Z,6.33
2022-08-16T20:24:36.058Z,5.80
2022-08-16T20:27:07.574Z,7.70
2022-08-16T20:29:35.562Z,9.53
2022-08-16T20:32:05.526Z,9.23
2022-08-16T20:34:33.163Z,11.63
2022-08-16T20:37:00.114Z,9.83
2022-08-16T20:39:27.454Z,9.43
2022-08-16T20:41:54.282Z,7.43
2022-08-16T20:44:22.693Z,12.63
2022-08-16T20:46:50.102Z,7.53
2022-08-16T20:49:16.967Z,10.20
2022-08-16T20:51:49.916Z,8.47
2022-08-16T20:54:23.109Z,7.23
2022-08-16T20:56:54.005Z,7.37
2022-08-16T20:59:22.240Z,10.20
2022-08-16T21:01:50.115Z,11.73
2022-08-16T21:04:25.248Z,8.13
2022-08-16T21:06:54.992Z,6.00
2022-08-16T21:09:31.316Z,7.40
2022-08-16T21:12:02.664Z,8.83
2022-08-16T21:14:33.816Z,7.90
2022-08-16T21:17:04.232Z,10.00
2022-08-16T21:19:31.823Z,7.10
2022-08-16T21:21:58.710Z,6.93
2022-08-16T21:24:25.470Z,6.70
2022-08-16T21:26:56.237Z,7.20
2022-08-16T21:29:39.017Z,8.83
2022-08-16T21:32:19.621Z,6.83
2022-08-16T21:35:13.907Z,5.77
2022-08-16T21:37:41.469Z,7.03
2022-08-16T21:40:10.494Z,4.93
2022-08-16T21:42:41.419Z,10.47
2022-08-16T21:45:13.538Z,7.40
2022-08-16T21:47:40.774Z,4.87
2022-08-16T21:50:10.635Z,7.80
2022-08-16T21:52:37.871Z,5.57
2022-08-16T21:55:06.035Z,7.33
2022-08-16T21:57:35.506Z,9.20
2022-08-16T22:00:11.648Z,5.87
2022-08-16T22:02:39.108Z,6.07
2022-08-16T22:05:06.560Z,6.37
2022-08-16T22:07:33.405Z,6.43
2022-08-16T22:10:00.297Z,13.50
2022-08-16T22:12:47.784Z,6.50
2022-08-16T22:15:15.619Z,6.00
2022-08-16T22:17:43.032Z,6.97
2022-08-16T22:20:11.024Z,6.63
2022-08-16T22:22:40.327Z,7.70
2022-08-16T22:25:07.563Z,4.73
2022-08-16T22:27:34.748Z,8.57
2022-08-16T22:30:01.702Z,7.20
2022-08-16T22:32:29.058Z,7.60
2022-08-16T22:34:56.611Z,6.13
2022-08-16T22:37:38.539Z,6.43
2022-08-16T22:40:25.370Z,6.33
2022-08-16T22:42:54.319Z,7.70
2022-08-16T22:45:23.165Z,5.57
2022-08-16T22:47:50.303Z,10.50
2022-08-16T22:50:18.310Z,8.87
2022-08-16T22:52:56.677Z,5.30
2022-08-16T22:55:26.701Z,6.50
2022-08-16T22:57:54.842Z,6.43
2022-08-16T23:00:27.444Z,6.73
2022-08-16T23:03:05.520Z,6.97
2022-08-16T23:05:42.644Z,6.23
2022-08-16T23:08:14.859Z,9.40
2022-08-16T23:10:59.583Z,4.87
2022-08-16T23:13:26.816Z,5.40
2022-08-16T23:16:02.236Z,11.70
2022-08-16T23:18:31.176Z,6.20
2022-08-16T23:21:01.684Z,6.90
2022-08-16T23:23:30.002Z,10.50
2022-08-16T23:25:58.755Z,5.90
2022-08-16T23:28:30.426Z,6.20
2022-08-16T23:30:58.908Z,6.13
2022-08-16T23:33:28.474Z,8.90
2022-08-16T23:35:58.788Z,9.37
2022-08-16T23:38:38.198Z,6.93
2022-08-16T23:41:11.441Z,5.80
2022-08-16T23:43:44.027Z,5.93
2022-08-16T23:46:19.374Z,5.60
2022-08-16T23:49:58.570Z,7.70
2022-08-16T23:51:34.386Z,5.63
2022-08-16T23:54:01.273Z,4.90
2022-08-16T23:56:29.983Z,5.90
2022-08-16T23:59:05.613Z,5.30
